createdAt,value
2018-08-17T04:11:16.672Z,184.00
2018-08-17T05:35:30.274Z,2364.00
2018-08-17T05:36:41.618Z,2400.00
2018-08-17T05:37:25.365Z,2452.00
2018-08-17T05:38:25.542Z,2492.00
2018-08-17T05:39:25.758Z,2476.00
2018-08-17T05:40:26.058Z,2464.00
2018-08-17T05:46:39.568Z,2872.00
2018-08-17T05:48:41.430Z,3048.00
2018-08-17T05:49:38.768Z,3036.00
2018-08-17T05:54:15.120Z,3252.00
2018-08-17T05:55:16.433Z,3340.00
2018-08-17T05:57:48.478Z,3328.00
2018-08-17T05:58:48.639Z,3308.00
2018-08-17T06:00:49.541Z,3476.00
2018-08-17T06:01:50.084Z,3484.00
2018-08-17T06:03:07.953Z,3556.00
2018-08-17T06:03:51.130Z,3592.00
2018-08-17T06:04:51.506Z,3616.00
2018-08-17T06:05:58.638Z,3624.00
2018-08-17T06:08:59.261Z,3716.00
2018-08-17T06:09:48.684Z,3724.00
2018-08-17T06:10:48.707Z,3680.00
2018-08-17T06:11:48.776Z,3772.00
2018-08-17T06:12:49.032Z,3800.00
2018-08-17T06:14:01.448Z,3872.00
2018-08-17T06:14:50.122Z,4060.00
2018-08-17T06:19:53.766Z,4360.00
2018-08-17T06:21:21.123Z,4460.00
2018-08-17T06:22:13.610Z,4552.00
2018-08-17T06:23:12.383Z,4568.00
2018-08-17T06:24:12.888Z,4592.00
2018-08-17T06:25:13.660Z,4584.00
2018-08-17T06:27:14.709Z,4404.00
2018-08-17T06:28:14.858Z,4248.00
2018-08-17T06:29:13.752Z,4100.00
2018-08-17T06:30:11.751Z,4440.00
2018-08-17T06:31:11.451Z,4464.00
2018-08-17T06:32:11.996Z,4536.00
2018-08-17T06:33:11.704Z,4600.00
2018-08-17T06:34:11.915Z,4628.00
2018-08-17T06:35:12.179Z,4748.00
2018-08-17T06:36:12.656Z,4804.00
2018-08-17T06:37:12.737Z,5088.00
2018-08-17T06:38:12.933Z,5556.00
2018-08-17T06:39:12.846Z,5804.00
2018-08-17T06:40:12.911Z,6028.00
2018-08-17T06:41:13.244Z,6188.00
2018-08-17T06:42:13.362Z,6268.00
2018-08-17T06:43:13.701Z,6316.00
2018-08-17T06:44:13.617Z,6156.00
2018-08-17T06:45:13.985Z,5844.00
2018-08-17T06:46:13.967Z,5644.00
2018-08-17T06:48:14.623Z,5548.00
2018-08-17T07:02:16.664Z,5632.00
2018-08-17T07:03:18.559Z,5668.00
2018-08-17T07:08:25.869Z,6024.00
2018-08-17T07:09:05.471Z,6028.00
2018-08-17T07:10:13.894Z,6172.00
2018-08-17T07:11:02.324Z,6248.00
2018-08-17T07:12:01.077Z,6432.00
2018-08-17T07:13:07.411Z,6528.00
2018-08-17T07:17:04.861Z,7484.00
2018-08-17T07:18:15.189Z,7888.00
2018-08-17T07:21:40.579Z,7692.00
2018-08-17T07:22:39.867Z,7492.00
2018-08-17T07:23:42.445Z,6980.00
2018-08-17T07:24:43.199Z,7004.00
2018-08-17T08:46:16.419Z,13876.00
2018-08-17T08:50:52.506Z,16608.00
2018-08-17T08:51:53.105Z,15432.00
2018-08-17T08:53:52.990Z,17344.00
2018-08-17T08:55:17.470Z,17920.00
2018-08-17T08:58:58.671Z,15632.00
2018-08-17T09:00:12.290Z,16032.00
2018-08-17T09:00:49.541Z,17056.00
2018-08-17T09:03:22.768Z,16736.00
2018-08-17T09:06:38.107Z,18336.00
2018-08-17T09:08:34.324Z,18688.00
2018-08-17T09:09:52.107Z,16512.00
2018-08-17T09:11:55.736Z,17440.00
2018-08-17T09:14:06.369Z,19008.00
2018-08-17T09:17:03.074Z,19104.00
2018-08-17T09:18:50.791Z,17312.00
2018-08-17T09:24:01.292Z,15808.00
2018-08-17T09:28:53.669Z,24800.00
2018-08-17T09:33:55.728Z,28160.00
2018-08-17T09:34:57.754Z,30976.00
2018-08-17T09:40:21.705Z,25408.00
2018-08-17T09:48:41.306Z,34464.00
2018-08-17T09:51:40.318Z,33184.00
2018-08-17T10:02:57.531Z,42912.00
2018-08-17T10:06:20.693Z,44800.00
2018-08-17T10:08:42.991Z,49632.00
2018-08-17T10:16:32.640Z,23744.00
2018-08-17T10:18:40.875Z,39360.00
2018-08-17T10:20:44.318Z,46912.00
2018-08-17T10:21:46.299Z,48256.00
2018-08-17T10:22:42.412Z,46048.00
2018-08-17T10:23:40.777Z,48160.00
2018-08-17T10:24:41.300Z,44128.00
2018-08-17T10:25:42.447Z,44640.00
2018-08-17T10:26:40.618Z,42528.00
2018-08-17T10:27:40.955Z,44704.00
2018-08-17T10:28:41.017Z,44896.00
2018-08-17T10:29:44.858Z,43872.00
2018-08-17T10:30:41.054Z,45856.00
2018-08-17T10:31:41.147Z,47776.00
2018-08-17T10:32:41.519Z,43968.00
2018-08-17T10:33:41.804Z,45184.00
2018-08-17T10:34:42.346Z,44736.00
2018-08-17T10:36:16.857Z,40832.00
2018-08-17T10:40:25.090Z,32576.00
2018-08-17T10:42:22.123Z,31584.00
2018-08-17T10:43:23.622Z,39744.00
2018-08-17T10:45:20.997Z,49280.00
2018-08-17T10:46:21.380Z,51008.00
2018-08-17T10:47:22.270Z,51008.00
2018-08-17T10:48:20.927Z,49792.00
2018-08-17T10:49:18.771Z,52480.00
2018-08-17T10:50:19.729Z,49184.00
2018-08-17T10:51:19.246Z,52416.00
2018-08-17T10:52:19.375Z,51040.00
2018-08-17T10:53:20.328Z,45632.00
2018-08-17T10:54:19.367Z,45536.00
2018-08-17T10:55:19.647Z,52480.00
2018-08-17T10:56:20.849Z,56416.00
2018-08-17T10:57:21.009Z,61440.00
2018-08-17T11:04:33.676Z,62816.00
2018-08-17T11:05:42.007Z,63520.00
2018-08-17T11:09:32.404Z,64704.00
2018-08-17T11:10:52.008Z,65440.00
2018-08-17T11:11:39.789Z,63200.00
2018-08-17T11:12:40.600Z,61600.00
2018-08-17T11:15:15.650Z,61408.00
2018-08-17T11:16:03.310Z,60928.00
2018-08-17T11:19:04.397Z,65920.00
2018-08-17T11:20:03.113Z,62432.00
2018-08-17T11:21:01.773Z,62816.00
2018-08-17T11:21:58.433Z,62240.00
2018-08-17T11:22:58.538Z,62016.00
2018-08-17T11:23:59.090Z,63680.00
2018-08-17T11:24:58.844Z,63904.00
2018-08-17T11:25:58.897Z,60288.00
2018-08-17T11:26:59.100Z,59616.00
2018-08-17T11:27:59.221Z,64224.00
2018-08-17T11:29:00.162Z,68704.00
2018-08-17T11:29:59.673Z,68704.00
2018-08-17T11:30:59.873Z,68384.00
2018-08-17T11:32:00.134Z,67648.00
2018-08-17T11:33:00.445Z,67552.00
2018-08-17T11:34:00.520Z,66016.00
2018-08-17T11:35:01.903Z,65600.00
2018-08-17T11:36:00.859Z,66272.00
2018-08-17T11:37:01.103Z,68160.00
2018-08-17T11:38:01.616Z,69664.00
2018-08-17T11:39:01.577Z,71424.00
2018-08-17T11:40:02.155Z,70528.00
2018-08-17T11:41:02.155Z,66784.00
2018-08-17T11:42:02.029Z,67104.00
2018-08-17T11:43:02.676Z,69632.00
2018-08-17T11:44:02.498Z,66976.00
2018-08-17T11:45:03.011Z,63008.00
2018-08-17T11:46:03.947Z,63904.00
2018-08-17T11:47:03.234Z,67872.00
2018-08-17T11:48:03.375Z,70048.00
2018-08-17T11:49:03.491Z,68672.00
2018-08-17T11:50:03.679Z,65888.00
2018-08-17T11:51:04.026Z,67392.00
2018-08-17T11:52:04.334Z,69856.00
2018-08-17T11:53:04.276Z,71744.00
2018-08-17T11:54:04.385Z,76224.00
2018-08-17T11:55:04.695Z,77600.00
2018-08-17T11:56:05.090Z,73184.00
2018-08-17T11:57:04.988Z,68736.00
2018-08-17T11:58:05.217Z,69216.00
2018-08-17T11:59:05.803Z,72160.00
2018-08-17T12:00:05.780Z,73728.00
2018-08-17T12:01:06.090Z,73376.00
2018-08-17T12:02:06.709Z,74624.00
2018-08-17T12:03:06.013Z,74016.00
2018-08-17T12:04:06.995Z,72640.00
2018-08-17T12:05:06.471Z,74816.00
2018-08-17T12:06:07.316Z,79680.00
2018-08-17T12:07:08.134Z,82496.00
2018-08-17T12:08:07.046Z,83072.00
2018-08-17T12:09:07.495Z,82720.00
2018-08-17T12:10:07.609Z,80320.00
2018-08-17T12:11:07.673Z,79552.00
2018-08-17T12:12:07.648Z,81408.00
2018-08-17T12:13:07.856Z,81376.00
2018-08-17T12:14:08.049Z,75648.00
2018-08-17T12:15:08.321Z,72992.00
2018-08-17T12:16:08.523Z,72672.00
2018-08-17T12:17:08.721Z,73024.00
2018-08-17T12:18:08.699Z,73312.00
2018-08-17T12:19:08.934Z,76448.00
2018-08-17T12:20:09.384Z,79072.00
2018-08-17T12:21:09.266Z,76864.00
2018-08-17T12:22:09.941Z,73280.00
2018-08-17T12:23:09.604Z,73984.00
2018-08-17T12:24:10.486Z,76832.00
2018-08-17T12:25:10.350Z,77024.00
2018-08-17T12:26:10.499Z,78016.00
2018-08-17T12:27:10.772Z,79168.00
2018-08-17T12:28:11.015Z,78880.00
2018-08-17T12:29:10.987Z,79104.00
2018-08-17T12:33:52.510Z,80800.00
2018-08-17T12:34:55.661Z,78976.00
2018-08-17T12:36:16.471Z,77280.00
2018-08-17T12:39:59.011Z,78240.00
2018-08-17T12:43:49.792Z,70848.00
2018-08-17T12:45:50.939Z,88288.00
2018-08-17T12:46:55.722Z,88384.00
2018-08-17T12:47:49.707Z,81344.00
2018-08-17T12:48:47.959Z,76480.00
2018-08-17T12:49:47.696Z,74368.00
2018-08-17T12:50:48.986Z,73824.00
2018-08-17T12:51:50.553Z,69632.00
2018-08-17T12:52:48.200Z,64992.00
2018-08-17T12:53:49.509Z,66400.00
2018-08-17T12:54:51.558Z,71968.00
2018-08-17T12:55:49.446Z,81696.00
2018-08-17T12:56:49.389Z,79712.00
2018-08-17T12:57:49.764Z,77440.00
2018-08-17T12:58:50.164Z,80608.00
2018-08-17T12:59:49.724Z,78304.00
2018-08-17T13:20:21.895Z,23616.00
2018-08-17T13:22:35.083Z,24192.00
2018-08-17T13:22:58.574Z,23424.00
2018-08-17T13:23:39.719Z,45664.00
2018-08-17T13:25:42.401Z,71520.00
2018-08-17T13:30:38.361Z,29088.00
2018-08-17T13:31:36.228Z,19872.00
2018-08-17T13:32:36.137Z,20128.00
2018-08-17T13:33:33.777Z,20608.00
2018-08-17T13:34:33.714Z,23392.00
2018-08-17T13:35:33.975Z,21088.00
2018-08-17T13:36:34.061Z,33024.00
2018-08-17T13:37:34.207Z,66272.00
2018-08-17T13:38:34.270Z,21632.00
2018-08-17T13:39:34.464Z,20640.00
2018-08-17T13:40:34.744Z,20896.00
2018-08-17T13:41:35.200Z,63712.00
2018-08-17T13:42:35.786Z,62336.00
2018-08-17T13:43:35.178Z,55456.00
2018-08-17T13:44:38.852Z,71360.00
2018-08-17T13:45:36.098Z,16992.00
2018-08-17T13:46:41.152Z,12784.00
2018-08-17T13:47:36.520Z,11152.00
2018-08-17T13:48:36.405Z,10624.00
2018-08-17T13:49:38.569Z,10388.00
2018-08-17T13:50:36.642Z,10400.00
2018-08-17T13:51:36.871Z,10732.00
2018-08-17T13:52:37.137Z,11164.00
2018-08-17T13:53:37.614Z,12032.00
2018-08-17T13:54:37.367Z,13860.00
2018-08-17T13:55:37.934Z,16384.00
2018-08-17T13:56:37.688Z,28576.00
2018-08-17T13:57:38.301Z,18624.00
2018-08-17T13:58:38.582Z,19616.00
2018-08-17T13:59:38.689Z,31936.00
2018-08-17T14:00:38.747Z,37248.00
2018-08-17T14:01:38.994Z,24064.00
2018-08-17T14:02:39.246Z,22912.00
2018-08-17T14:03:39.302Z,25664.00
2018-08-17T14:04:39.276Z,57856.00
2018-08-17T14:05:39.700Z,58464.00
2018-08-17T14:06:40.010Z,62208.00
2018-08-17T14:07:40.196Z,63264.00
2018-08-17T14:08:41.410Z,65760.00
2018-08-17T14:09:41.095Z,67744.00
2018-08-17T14:10:40.958Z,68992.00
2018-08-17T14:11:41.309Z,71712.00
2018-08-17T14:12:41.375Z,72256.00
2018-08-17T14:13:42.356Z,69792.00
2018-08-17T14:14:42.200Z,66784.00
2018-08-17T14:15:42.215Z,66080.00
2018-08-17T14:16:41.738Z,64640.00
2018-08-17T14:17:42.205Z,66656.00
2018-08-17T14:18:42.329Z,69984.00
2018-08-17T14:19:43.706Z,70880.00
2018-08-17T14:20:42.992Z,71264.00
2018-08-17T14:21:42.898Z,68800.00
2018-08-17T14:22:44.348Z,67040.00
2018-08-17T14:23:42.998Z,68384.00
2018-08-17T14:24:43.093Z,71232.00
2018-08-17T14:25:43.420Z,70816.00
2018-08-17T14:26:43.849Z,71392.00
2018-08-17T14:27:45.377Z,69472.00
2018-08-17T14:28:43.885Z,66496.00
2018-08-17T14:29:44.092Z,61280.00
2018-08-17T14:30:45.624Z,60576.00
2018-08-17T14:31:44.651Z,63360.00
2018-08-17T14:32:45.230Z,63872.00
2018-08-17T14:33:46.056Z,61632.00
2018-08-17T14:34:46.999Z,63392.00
2018-08-17T14:35:47.193Z,66720.00
2018-08-17T14:36:45.160Z,67392.00
2018-08-17T14:37:45.356Z,65824.00
2018-08-17T14:38:45.992Z,63520.00
2018-08-17T14:39:47.442Z,61920.00
2018-08-17T14:40:59.106Z,62144.00
2018-08-17T14:41:46.116Z,62144.00
2018-08-17T14:42:46.573Z,60672.00
2018-08-17T14:43:46.646Z,61344.00
2018-08-17T14:44:46.900Z,60032.00
2018-08-17T14:45:46.819Z,65568.00
2018-08-17T14:46:47.133Z,62656.00
2018-08-17T14:47:47.683Z,62176.00
2018-08-17T14:48:47.848Z,54592.00
2018-08-17T14:49:47.982Z,59648.00
2018-08-17T14:50:47.715Z,67296.00
2018-08-17T14:51:47.935Z,61856.00
2018-08-17T14:52:48.142Z,64896.00
2018-08-17T14:53:48.447Z,68032.00
2018-08-17T14:54:48.398Z,55616.00
2018-08-17T14:55:48.509Z,44800.00
2018-08-17T14:56:48.780Z,42816.00
2018-08-17T14:57:49.001Z,56320.00
2018-08-17T14:58:49.096Z,58240.00
2018-08-17T14:59:49.351Z,60032.00
2018-08-17T15:00:49.578Z,52288.00
2018-08-17T15:01:49.812Z,46176.00
2018-08-17T15:02:49.942Z,48672.00
2018-08-17T15:03:50.128Z,51168.00
2018-08-17T15:04:50.149Z,47840.00
2018-08-17T15:05:50.350Z,29792.00
2018-08-17T15:06:50.652Z,41824.00
2018-08-17T15:07:50.808Z,42656.00
2018-08-17T15:08:51.057Z,55744.00
2018-08-17T15:09:51.380Z,46336.00
2018-08-17T15:10:51.454Z,39840.00
2018-08-17T15:11:51.605Z,38560.00
2018-08-17T15:12:51.824Z,49536.00
2018-08-17T15:13:51.982Z,51616.00
2018-08-17T15:14:52.170Z,37568.00
2018-08-17T15:15:52.507Z,30464.00
2018-08-17T15:16:52.580Z,38208.00
2018-08-17T15:17:52.756Z,44128.00
2018-08-17T15:18:52.965Z,37408.00
2018-08-17T15:19:53.249Z,31456.00
2018-08-17T15:20:53.299Z,33216.00
2018-08-17T15:21:53.435Z,34720.00
2018-08-17T15:22:53.616Z,31904.00
2018-08-17T15:23:53.881Z,29472.00
2018-08-17T15:24:53.985Z,30144.00
2018-08-17T15:25:54.344Z,30240.00
2018-08-17T15:26:54.464Z,28416.00
2018-08-17T15:27:54.628Z,27616.00
2018-08-17T15:28:54.897Z,27392.00
2018-08-17T15:29:55.091Z,25504.00
2018-08-17T15:30:55.215Z,25088.00
2018-08-17T15:31:55.316Z,25440.00
2018-08-17T15:32:55.550Z,23616.00
2018-08-17T15:33:55.732Z,22464.00
2018-08-17T15:34:55.885Z,24576.00
2018-08-17T15:35:56.092Z,24608.00
2018-08-17T15:36:56.202Z,24160.00
2018-08-17T15:37:56.336Z,25312.00
2018-08-17T15:38:56.715Z,23776.00
2018-08-17T15:39:56.788Z,20256.00
2018-08-17T15:40:57.139Z,21472.00
2018-08-17T15:41:57.258Z,24896.00
2018-08-17T15:42:57.555Z,27744.00
2018-08-17T15:43:57.649Z,30720.00
2018-08-17T15:44:57.839Z,31904.00
2018-08-17T15:45:57.944Z,33760.00
2018-08-17T15:46:58.133Z,39520.00
2018-08-17T15:47:58.320Z,45632.00
2018-08-17T15:48:58.544Z,45888.00
2018-08-17T15:49:58.597Z,43424.00
2018-08-17T15:50:58.958Z,43232.00
2018-08-17T15:51:59.254Z,44448.00
2018-08-17T15:54:00.486Z,36512.00
2018-08-17T15:54:59.721Z,40320.00
2018-08-17T15:55:59.892Z,32000.00
2018-08-17T15:57:00.119Z,25248.00
2018-08-17T15:58:00.409Z,24096.00
2018-08-17T15:59:00.469Z,17152.00
2018-08-17T16:00:00.607Z,13516.00
2018-08-17T16:01:00.780Z,17856.00
2018-08-17T16:02:01.173Z,8756.00
2018-08-17T16:03:02.063Z,10956.00
2018-08-17T16:04:01.475Z,8692.00
2018-08-17T16:05:01.565Z,8580.00
2018-08-17T16:06:01.819Z,9268.00
2018-08-17T16:07:01.945Z,8876.00
2018-08-17T16:08:02.188Z,8020.00
2018-08-17T16:09:02.273Z,8828.00
2018-08-17T16:10:02.531Z,8036.00
2018-08-17T16:11:02.744Z,7264.00
2018-08-17T16:12:02.831Z,7064.00
2018-08-17T16:13:03.135Z,6788.00
2018-08-17T16:14:03.184Z,6800.00
2018-08-17T16:15:03.517Z,7088.00
2018-08-17T16:16:03.916Z,7296.00
2018-08-17T16:17:03.903Z,7796.00
2018-08-17T16:18:03.965Z,8020.00
2018-08-17T16:19:04.334Z,7508.00
2018-08-17T16:20:04.397Z,7212.00
2018-08-17T16:21:04.587Z,7284.00
2018-08-17T16:22:04.753Z,7128.00
2018-08-17T16:23:04.984Z,7120.00
2018-08-17T16:24:05.456Z,7312.00
2018-08-17T16:26:05.638Z,7748.00
2018-08-17T16:27:05.732Z,7624.00
2018-08-17T16:28:05.971Z,7696.00
2018-08-17T16:29:06.067Z,10668.00
2018-08-17T16:30:06.327Z,8320.00
2018-08-17T16:31:06.386Z,8796.00
2018-08-17T16:32:06.717Z,7832.00
2018-08-17T16:33:06.762Z,7620.00
2018-08-17T16:34:07.043Z,6840.00
2018-08-17T16:35:07.146Z,7452.00
2018-08-17T16:36:07.448Z,8024.00
2018-08-17T16:37:07.565Z,7784.00
2018-08-17T16:38:07.806Z,7824.00
2018-08-17T16:39:08.478Z,8592.00
2018-08-17T16:40:08.026Z,9976.00
2018-08-17T16:41:08.166Z,13560.00
2018-08-17T16:44:08.991Z,8996.00
2018-08-17T16:47:10.451Z,7768.00
2018-08-17T16:48:12.729Z,7928.00
2018-08-17T16:49:10.481Z,8272.00
2018-08-17T16:50:09.845Z,9288.00
2018-08-17T16:51:10.322Z,9516.00
2018-08-17T16:52:10.279Z,8600.00
2018-08-17T16:53:10.497Z,8268.00
2018-08-17T16:54:10.497Z,7964.00
2018-08-17T16:55:10.660Z,7872.00
2018-08-17T16:56:15.578Z,7752.00
2018-08-17T16:57:11.082Z,7712.00
2018-08-17T16:58:11.754Z,7600.00
2018-08-17T16:59:11.609Z,7508.00
2018-08-17T17:00:11.566Z,7284.00
2018-08-17T17:01:12.099Z,7256.00
2018-08-17T17:02:12.057Z,7196.00
2018-08-17T17:03:12.530Z,7068.00
2018-08-17T17:04:12.467Z,6936.00
2018-08-17T17:05:12.647Z,6780.00
2018-08-17T17:06:12.734Z,6652.00
2018-08-17T17:07:12.853Z,6512.00
2018-08-17T17:08:13.410Z,6392.00
2018-08-17T17:09:13.277Z,6232.00
2018-08-17T17:10:13.457Z,6076.00
2018-08-17T17:11:13.766Z,6036.00
2018-08-17T17:12:13.764Z,5864.00
2018-08-17T17:13:14.085Z,5776.00
2018-08-17T17:14:14.269Z,5676.00
2018-08-17T17:15:15.108Z,5780.00
2018-08-17T17:16:15.612Z,5424.00
2018-08-17T17:17:17.279Z,5228.00
2018-08-17T17:18:16.300Z,5008.00
2018-08-17T17:19:15.140Z,4988.00
2018-08-17T17:20:15.354Z,4940.00
2018-08-17T17:21:15.495Z,4792.00
2018-08-17T17:23:16.030Z,4408.00
2018-08-17T17:26:16.585Z,3920.00
2018-08-17T17:27:16.630Z,3756.00
2018-08-17T17:28:16.819Z,3644.00
2018-08-17T17:29:17.266Z,3516.00
2018-08-17T17:30:17.507Z,3444.00
2018-08-17T17:31:17.558Z,3368.00
2018-08-17T17:32:17.626Z,3292.00
2018-08-17T17:33:17.952Z,3196.00
2018-08-17T17:34:17.861Z,3080.00
2018-08-17T17:35:18.333Z,2968.00
2018-08-17T17:36:18.418Z,2788.00
2018-08-17T17:37:18.590Z,2696.00
2018-08-17T17:38:18.711Z,2636.00
2018-08-17T17:39:18.796Z,2548.00
2018-08-17T17:40:19.043Z,2508.00
2018-08-17T17:41:19.235Z,2448.00
2018-08-17T17:42:26.503Z,2340.00
2018-08-17T17:43:19.533Z,2208.00
2018-08-17T17:44:19.657Z,2060.00
2018-08-17T17:45:19.909Z,1936.00
2018-08-17T17:46:20.031Z,1896.00
2018-08-17T17:47:20.321Z,1864.00
2018-08-17T17:48:20.484Z,1848.00
2018-08-17T17:49:20.677Z,1812.00
2018-08-17T17:50:20.690Z,1772.00
2018-08-17T17:51:20.862Z,1744.00
2018-08-17T17:52:21.051Z,1708.00
2018-08-17T17:53:21.235Z,1672.00
2018-08-17T17:54:21.544Z,1620.00
2018-08-17T17:55:21.602Z,1572.00
2018-08-17T17:56:21.638Z,1528.00
2018-08-17T17:57:21.892Z,1500.00
2018-08-17T18:00:23.988Z,1472.00
2018-08-17T18:01:22.829Z,1472.00
2018-08-17T18:02:22.992Z,1472.00
2018-08-17T18:03:23.054Z,1468.00
2018-08-17T18:04:23.235Z,1464.00
2018-08-17T18:05:23.439Z,1448.00
2018-08-17T18:06:23.533Z,1432.00
2018-08-17T18:07:23.909Z,1392.00
2018-08-17T18:08:23.891Z,1364.00
2018-08-17T18:10:24.298Z,1312.00
2018-08-17T18:11:24.644Z,1244.00
2018-08-17T18:12:24.550Z,1200.00
2018-08-17T18:13:24.851Z,1160.00
2018-08-17T18:14:25.088Z,1120.00
2018-08-17T18:15:25.168Z,1080.00
2018-08-17T18:16:25.314Z,1044.00
2018-08-17T18:17:25.640Z,988.00
2018-08-17T18:18:25.712Z,932.00
2018-08-17T18:19:25.846Z,880.00
2018-08-17T18:20:26.069Z,832.00
2018-08-17T18:21:26.247Z,788.00
2018-08-17T18:22:26.547Z,740.00
2018-08-17T18:23:26.729Z,700.00
2018-08-17T18:24:26.760Z,660.00
2018-08-17T18:25:26.888Z,628.00
2018-08-17T18:26:27.790Z,600.00
2018-08-17T18:27:27.418Z,572.00
2018-08-17T18:28:27.725Z,544.00
2018-08-17T18:29:29.043Z,512.00
2018-08-17T18:31:28.372Z,452.00
2018-08-17T18:32:28.554Z,408.00
2018-08-17T18:33:28.597Z,368.00
2018-08-17T18:36:29.083Z,268.00
2018-08-17T18:37:29.320Z,240.00
2018-08-17T18:38:29.498Z,216.00
2018-08-17T18:39:29.775Z,192.00
2018-08-17T18:40:29.960Z,172.00
2018-08-17T18:41:30.519Z,148.00
2018-08-17T18:42:30.218Z,132.00
2018-08-17T18:43:30.336Z,116.00
2018-08-17T18:44:30.614Z,104.00
2018-08-17T18:45:31.106Z,92.00
2018-08-17T18:46:30.756Z,76.00
2018-08-17T18:47:30.985Z,64.00
2018-08-17T18:48:31.257Z,56.00
2018-08-17T18:49:31.585Z,48.00
2018-08-17T18:50:32.271Z,44.00
2018-08-17T18:51:31.744Z,40.00
2018-08-17T18:52:32.241Z,32.00
2018-08-17T18:53:32.184Z,28.00
2018-08-17T18:54:32.572Z,24.00
2018-08-17T18:55:32.809Z,20.00
2018-08-17T18:56:32.766Z,20.00
2018-08-17T18:57:32.937Z,12.00
2018-08-17T18:58:33.030Z,16.00
2018-08-17T18:59:33.050Z,12.00
2018-08-17T19:00:33.247Z,8.00
2018-08-17T19:01:33.657Z,8.00
2018-08-17T19:02:33.829Z,4.00
2018-08-17T19:03:33.896Z,4.00
2018-08-17T19:04:33.839Z,4.00
2018-08-17T19:05:34.098Z,4.00
2018-08-17T19:06:34.431Z,4.00
2018-08-17T19:07:34.661Z,0.00
2018-08-17T19:08:34.630Z,4.00
2018-08-17T19:09:35.100Z,4.00
2018-08-17T19:10:38.463Z,4.00
2018-08-17T19:11:35.126Z,0.00
2018-08-17T19:12:35.273Z,0.00
2018-08-17T19:13:35.831Z,0.00
2018-08-17T19:14:38.773Z,0.00
2018-08-17T19:15:36.622Z,0.00
2018-08-17T19:16:36.542Z,0.00
2018-08-17T19:19:01.888Z,0.00
2018-08-17T19:19:05.970Z,0.00
2018-08-17T19:20:06.031Z,0.00
2018-08-17T19:21:06.749Z,0.00
2018-08-17T19:22:06.475Z,0.00
2018-08-17T19:23:06.390Z,0.00
2018-08-17T19:24:06.997Z,0.00
2018-08-17T19:25:07.028Z,0.00
2018-08-17T19:26:06.983Z,0.00
2018-08-17T19:27:07.394Z,0.00
2018-08-17T19:28:07.582Z,0.00
2018-08-17T19:30:43.914Z,0.00
2018-08-17T19:31:44.866Z,0.00
2018-08-17T19:32:44.850Z,0.00
2018-08-17T19:34:44.540Z,0.00
2018-08-17T19:35:45.063Z,0.00
2018-08-17T19:36:45.819Z,0.00
2018-08-17T19:37:45.089Z,0.00
2018-08-17T19:38:43.423Z,0.00
2018-08-17T19:39:42.717Z,0.00
2018-08-17T19:40:43.077Z,0.00
2018-08-17T19:41:43.171Z,0.00
2018-08-17T19:42:43.324Z,0.00
2018-08-17T19:44:08.409Z,0.00
2018-08-17T19:45:06.778Z,0.00
2018-08-17T19:45:44.123Z,0.00
2018-08-17T19:46:44.936Z,0.00
2018-08-17T19:47:44.294Z,0.00
2018-08-17T19:48:44.356Z,0.00
2018-08-17T19:49:44.755Z,0.00
2018-08-17T19:50:44.638Z,0.00
2018-08-17T19:51:44.943Z,0.00
2018-08-17T19:52:45.384Z,0.00
2018-08-17T19:53:45.695Z,0.00
2018-08-17T19:54:45.478Z,0.00
2018-08-17T19:55:45.637Z,0.00
2018-08-17T19:56:46.165Z,0.00
2018-08-17T19:57:57.792Z,0.00
2018-08-17T19:58:47.070Z,0.00
2018-08-17T19:59:46.260Z,0.00
2018-08-17T20:00:46.697Z,0.00
2018-08-17T20:01:47.594Z,0.00
2018-08-17T20:02:47.050Z,0.00
2018-08-17T20:03:47.294Z,0.00
2018-08-17T20:04:47.250Z,0.00
2018-08-17T20:05:47.746Z,0.00
2018-08-17T20:06:52.530Z,0.00
2018-08-17T20:07:48.057Z,0.00
2018-08-17T20:40:18.166Z,0.00
2018-08-17T20:41:14.019Z,0.00
2018-08-17T20:42:17.441Z,0.00
2018-08-17T20:43:38.157Z,0.00
2018-08-17T20:44:16.639Z,0.00
2018-08-17T20:45:15.786Z,0.00
2018-08-17T20:46:21.820Z,0.00
2018-08-17T20:48:15.840Z,0.00
2018-08-17T20:49:15.739Z,0.00
2018-08-17T20:50:16.079Z,0.00
2018-08-17T20:51:13.543Z,0.00
2018-08-17T20:52:13.112Z,0.00
2018-08-17T20:53:13.134Z,0.00
2018-08-17T20:54:13.426Z,0.00
2018-08-17T20:55:16.183Z,0.00
2018-08-17T20:56:13.822Z,0.00
2018-08-17T20:57:13.805Z,0.00
2018-08-17T20:58:13.814Z,0.00
2018-08-17T20:59:14.373Z,0.00
2018-08-17T21:00:14.370Z,0.00
2018-08-17T21:01:14.401Z,0.00
2018-08-17T21:02:15.439Z,0.00
2018-08-17T21:03:14.982Z,0.00
2018-08-17T21:04:14.545Z,0.00
2018-08-17T21:05:15.185Z,0.00
2018-08-17T21:06:15.139Z,0.00
2018-08-17T21:07:16.990Z,0.00
2018-08-17T21:08:16.185Z,0.00
2018-08-17T21:09:15.956Z,0.00
2018-08-17T21:10:15.959Z,0.00
2018-08-17T21:11:16.432Z,0.00
2018-08-17T21:12:16.270Z,0.00
2018-08-17T21:13:16.855Z,0.00
2018-08-17T21:14:16.622Z,0.00
2018-08-17T21:15:17.665Z,0.00
2018-08-17T21:16:17.158Z,0.00
2018-08-17T21:17:17.134Z,0.00
2018-08-17T21:18:17.438Z,0.00
2018-08-17T21:19:17.357Z,0.00
2018-08-17T21:20:17.623Z,0.00
2018-08-17T21:21:17.814Z,0.00
2018-08-17T21:22:17.996Z,0.00
2018-08-17T21:23:19.232Z,0.00
2018-08-17T21:24:18.266Z,0.00
2018-08-17T21:25:18.453Z,0.00
2018-08-17T21:26:18.592Z,0.00
2018-08-17T21:27:18.808Z,0.00
2018-08-17T21:28:18.869Z,0.00
2018-08-17T21:29:19.605Z,0.00
2018-08-17T21:30:19.633Z,0.00
2018-08-17T21:31:19.550Z,0.00
2018-08-17T21:32:21.409Z,0.00
2018-08-17T21:33:20.068Z,0.00
2018-08-17T21:34:20.440Z,0.00
2018-08-17T21:35:20.563Z,0.00
2018-08-17T21:36:22.456Z,0.00
2018-08-17T21:37:20.786Z,0.00
2018-08-17T21:38:20.730Z,0.00
2018-08-17T21:39:21.751Z,0.00
2018-08-17T21:40:22.423Z,0.00
2018-08-17T21:41:22.047Z,0.00
2018-08-17T21:42:22.279Z,0.00
2018-08-17T21:43:22.776Z,0.00
2018-08-17T21:44:22.234Z,0.00
2018-08-17T21:45:22.610Z,0.00
2018-08-17T21:46:22.800Z,0.00
2018-08-17T21:47:23.039Z,0.00
2018-08-17T21:48:23.542Z,0.00
2018-08-17T21:49:23.748Z,0.00
